createdAt,value
2016-07-12T00:00:32.230Z,58.13
2016-07-12T00:01:32.208Z,58.13
2016-07-12T00:02:32.194Z,58.22
2016-07-12T00:03:32.173Z,58.42
2016-07-12T00:04:32.154Z,58.51
2016-07-12T00:05:32.136Z,58.32
2016-07-12T00:06:32.117Z,58.32
2016-07-12T00:07:32.132Z,58.42
2016-07-12T00:08:32.084Z,58.8
2016-07-12T00:09:32.058Z,58.22
2016-07-12T00:10:32.043Z,58.51
2016-07-12T00:11:32.022Z,58.96
2016-07-12T00:12:32.003Z,59.06
2016-07-12T00:13:31.984Z,58.99
2016-07-12T00:14:31.973Z,58.96
2016-07-12T00:15:31.951Z,58.89
2016-07-12T00:16:31.928Z,59.19
2016-07-12T00:17:31.911Z,58.96
2016-07-12T00:18:31.887Z,59.25
2016-07-12T00:19:31.874Z,59.44
2016-07-12T00:20:31.848Z,59.16
2016-07-12T00:21:31.835Z,59.44
2016-07-12T00:22:31.810Z,59.44
2016-07-12T00:23:31.792Z,59.92
2016-07-12T00:24:31.773Z,59.64
2016-07-12T00:25:31.751Z,59.83
2016-07-12T00:26:31.736Z,60.11
2016-07-12T00:27:31.715Z,59.83
2016-07-12T00:28:31.696Z,59.54
2016-07-12T00:29:31.676Z,59.83
2016-07-12T00:30:31.656Z,59.54
2016-07-12T00:31:31.635Z,59.64
2016-07-12T00:32:31.620Z,59.83
2016-07-12T00:33:31.602Z,60.02
2016-07-12T00:34:31.585Z,59.64
2016-07-12T00:35:31.564Z,60.4
2016-07-12T00:36:31.541Z,60.31
2016-07-12T00:37:31.522Z,60.11
2016-07-12T00:38:31.505Z,60.21
2016-07-12T00:39:31.491Z,60.21
2016-07-12T00:40:31.464Z,60.31
2016-07-12T00:41:31.445Z,60.4
2016-07-12T00:42:31.428Z,60.31
2016-07-12T00:43:31.405Z,60.78
2016-07-12T00:44:31.388Z,60.88
2016-07-12T00:45:31.369Z,60.6
2016-07-12T00:46:31.347Z,60.6
2016-07-12T00:47:31.328Z,60.5
2016-07-12T00:48:31.312Z,60.69
2016-07-12T00:49:31.290Z,60.66
2016-07-12T00:50:31.280Z,60.88
2016-07-12T00:51:31.251Z,60.98
2016-07-12T00:52:31.232Z,61.17
2016-07-12T00:53:31.211Z,60.95
2016-07-12T00:54:31.194Z,60.98
2016-07-12T00:55:31.175Z,60.75
2016-07-12T00:56:31.154Z,61.43
2016-07-12T00:57:31.133Z,61.33
2016-07-12T00:58:31.115Z,61.24
2016-07-12T00:59:31.094Z,61.14
2016-07-12T01:00:31.075Z,61.14
2016-07-12T01:01:31.058Z,60.95
2016-07-12T01:02:31.037Z,61.14
2016-07-12T01:03:31.017Z,61.14
2016-07-12T01:04:31.001Z,61.72
2016-07-12T01:05:30.984Z,61.33
2016-07-12T01:06:30.960Z,61.62
2016-07-12T01:07:30.940Z,61.52
2016-07-12T01:08:30.920Z,61.33
2016-07-12T01:09:30.901Z,61.81
2016-07-12T01:10:30.883Z,61.91
2016-07-12T01:11:30.862Z,61.84
2016-07-12T01:12:30.846Z,61.91
2016-07-12T01:13:30.822Z,61.75
2016-07-12T01:14:30.803Z,62.01
2016-07-12T01:15:30.784Z,61.91
2016-07-12T01:16:30.763Z,62.01
2016-07-12T01:17:30.746Z,61.94
2016-07-12T01:18:30.726Z,61.84
2016-07-12T01:19:30.705Z,61.91
2016-07-12T01:20:30.687Z,61.91
2016-07-12T01:21:30.666Z,61.36
2016-07-12T01:22:30.647Z,61.33
2016-07-12T01:23:30.630Z,61.65
2016-07-12T01:24:30.607Z,62.13
2016-07-12T01:25:30.588Z,62.13
2016-07-12T01:26:30.568Z,62.1
2016-07-12T01:27:30.551Z,61.94
2016-07-12T01:28:30.540Z,61.91
2016-07-12T01:29:30.512Z,61.91
2016-07-12T01:30:30.492Z,61.91
2016-07-12T01:31:31.164Z,61.94
2016-07-12T01:32:30.452Z,61.94
2016-07-12T01:33:30.431Z,61.91
2016-07-12T01:34:30.413Z,61.91
2016-07-12T01:35:30.395Z,61.81
2016-07-12T01:36:30.375Z,61.72
2016-07-12T01:37:30.357Z,61.81
2016-07-12T01:38:30.335Z,61.91
2016-07-12T01:39:30.327Z,61.91
2016-07-12T01:40:30.301Z,62.1
2016-07-12T01:41:30.276Z,61.72
2016-07-12T01:42:30.257Z,61.81
2016-07-12T01:43:30.237Z,62.04
2016-07-12T01:44:30.217Z,61.91
2016-07-12T01:45:30.199Z,61.72
2016-07-12T01:46:30.180Z,61.72
2016-07-12T01:47:30.160Z,61.62
2016-07-12T01:48:30.841Z,61.62
2016-07-12T01:49:30.122Z,61.81
2016-07-12T01:50:30.100Z,61.62
2016-07-12T01:51:30.082Z,61.72
2016-07-12T01:52:30.061Z,62.1
2016-07-12T01:53:30.044Z,61.72
2016-07-12T01:54:30.024Z,61.81
2016-07-12T01:55:30.005Z,61.91
2016-07-12T01:56:29.983Z,61.81
2016-07-12T01:57:29.966Z,62.04
2016-07-12T01:58:29.951Z,61.81
2016-07-12T01:59:29.926Z,62.19
2016-07-12T02:00:29.909Z,61.84
2016-07-12T02:01:29.885Z,62.39
2016-07-12T02:02:29.874Z,62.29
2016-07-12T02:03:29.846Z,62.39
2016-07-12T02:04:29.829Z,62.58
2016-07-12T02:05:29.810Z,62.39
2016-07-12T02:06:29.795Z,62.39
2016-07-12T02:07:29.771Z,62.77
2016-07-12T02:08:29.752Z,62.29
2016-07-12T02:09:29.731Z,62.48
2016-07-12T02:10:29.783Z,62.29
2016-07-12T02:11:29.693Z,62.68
2016-07-12T02:12:29.673Z,62.48
2016-07-12T02:13:29.656Z,62.39
2016-07-12T02:14:29.633Z,62.39
2016-07-12T02:15:29.611Z,62.68
2016-07-12T02:16:29.594Z,62.58
2016-07-12T02:17:29.575Z,62.48
2016-07-12T02:18:29.554Z,62.29
2016-07-12T02:19:29.535Z,62.48
2016-07-12T02:20:29.514Z,62.39
2016-07-12T02:21:29.495Z,62.68
2016-07-12T02:22:29.476Z,62.48
2016-07-12T02:23:29.457Z,62.29
2016-07-12T02:24:29.437Z,62.29
2016-07-12T02:25:29.419Z,62.29
2016-07-12T02:26:29.396Z,62.58
2016-07-12T02:27:29.382Z,62.39
2016-07-12T02:28:29.359Z,62.39
2016-07-12T02:29:29.337Z,62.48
2016-07-12T02:30:29.320Z,62.68
2016-07-12T02:31:29.302Z,62.77
2016-07-12T02:32:29.281Z,62.96
2016-07-12T02:33:29.260Z,62.77
2016-07-12T02:34:29.240Z,62.48
2016-07-12T02:35:29.222Z,62.39
2016-07-12T02:36:29.201Z,62.48
2016-07-12T02:37:29.184Z,62.77
2016-07-12T02:38:29.160Z,62.48
2016-07-12T02:39:29.145Z,62.39
2016-07-12T02:40:29.124Z,62.65
2016-07-12T02:41:29.106Z,62.87
2016-07-12T02:42:29.082Z,62.65
2016-07-12T02:43:29.064Z,62.96
2016-07-12T02:44:29.044Z,62.84
2016-07-12T02:45:29.022Z,62.45
2016-07-12T02:46:29.004Z,62.45
2016-07-12T02:47:28.983Z,62.45
2016-07-12T02:48:28.965Z,62.45
2016-07-12T02:49:28.942Z,62.45
2016-07-12T02:50:28.925Z,62.45
2016-07-12T02:51:28.907Z,62.45
2016-07-12T02:52:28.886Z,62.55
2016-07-12T02:53:28.864Z,62.65
2016-07-12T02:54:28.845Z,62.65
2016-07-12T02:55:28.823Z,62.45
2016-07-12T02:56:28.811Z,63.03
2016-07-12T02:57:28.787Z,63.42
2016-07-12T02:58:28.772Z,63.03
2016-07-12T02:59:28.743Z,62.93
2016-07-12T03:00:28.737Z,63.42
2016-07-12T03:01:28.708Z,63.6
2016-07-12T03:02:28.688Z,63.7
2016-07-12T03:03:28.665Z,63.6
2016-07-12T03:04:28.646Z,64.09
2016-07-12T03:05:28.628Z,63.79
2016-07-12T03:06:28.606Z,63.7
2016-07-12T03:07:28.586Z,63.22
2016-07-12T03:08:28.566Z,64.18
2016-07-12T03:09:28.545Z,63.79
2016-07-12T03:10:28.528Z,63.7
2016-07-12T03:11:28.507Z,63.89
2016-07-12T03:12:28.487Z,63.89
2016-07-12T03:13:28.467Z,63.7
2016-07-12T03:14:28.449Z,63.7
2016-07-12T03:15:28.433Z,63.42
2016-07-12T03:16:28.415Z,63.6
2016-07-12T03:17:28.388Z,63.99
2016-07-12T03:18:28.366Z,63.6
2016-07-12T03:19:28.349Z,63.6
2016-07-12T03:20:28.330Z,63.79
2016-07-12T03:21:28.306Z,63.7
2016-07-12T03:22:28.286Z,63.6
2016-07-12T03:23:28.271Z,63.51
2016-07-12T03:24:28.248Z,63.79
2016-07-12T03:25:28.229Z,63.7
2016-07-12T03:26:28.211Z,63.79
2016-07-12T03:27:28.189Z,63.79
2016-07-12T03:28:28.168Z,63.6
2016-07-12T03:29:28.147Z,63.7
2016-07-12T03:30:28.128Z,63.51
2016-07-12T03:31:28.108Z,63.51
2016-07-12T03:32:28.087Z,63.89
2016-07-12T03:33:28.068Z,63.79
2016-07-12T03:34:28.046Z,63.57
2016-07-12T03:35:28.027Z,63.7
2016-07-12T03:36:28.007Z,63.7
2016-07-12T03:37:27.990Z,63.99
2016-07-12T03:38:27.970Z,63.89
2016-07-12T03:39:27.946Z,63.6
2016-07-12T03:40:27.939Z,63.57
2016-07-12T03:41:27.910Z,63.48
2016-07-12T03:42:27.886Z,63.86
2016-07-12T03:43:27.871Z,63.79
2016-07-12T03:44:27.849Z,63.7
2016-07-12T03:45:27.827Z,63.67
2016-07-12T03:46:27.805Z,63.48
2016-07-12T03:47:27.786Z,63.48
2016-07-12T03:48:27.769Z,63.57
2016-07-12T03:49:27.748Z,63.67
2016-07-12T03:50:27.729Z,63.57
2016-07-12T03:51:27.707Z,63.48
2016-07-12T03:52:27.689Z,63.57
2016-07-12T03:53:27.668Z,64.05
2016-07-12T03:54:27.647Z,63.67
2016-07-12T03:55:27.627Z,63.57
2016-07-12T03:56:27.605Z,63.7
2016-07-12T03:57:27.589Z,64.09
2016-07-12T03:58:27.567Z,63.57
2016-07-12T03:59:27.545Z,63.6
2016-07-12T04:00:27.527Z,63.89
2016-07-12T04:01:27.510Z,64.09
2016-07-12T04:02:27.487Z,63.7
2016-07-12T04:03:27.469Z,63.51
2016-07-12T04:04:27.448Z,63.7
2016-07-12T04:05:27.427Z,63.89
2016-07-12T04:06:27.405Z,63.79
2016-07-12T04:07:27.401Z,63.99
2016-07-12T04:08:27.371Z,63.89
2016-07-12T04:09:27.347Z,63.99
2016-07-12T04:10:27.329Z,63.7
2016-07-12T04:11:27.312Z,63.89
2016-07-12T04:12:27.290Z,63.79
2016-07-12T04:13:27.270Z,63.6
2016-07-12T04:14:27.250Z,63.89
2016-07-12T04:15:27.231Z,63.89
2016-07-12T04:16:27.211Z,64.09
2016-07-12T04:17:27.190Z,64.09
2016-07-12T04:18:27.172Z,63.51
2016-07-12T04:19:27.151Z,63.32
2016-07-12T04:20:27.130Z,63.79
2016-07-12T04:21:27.110Z,63.6
2016-07-12T04:22:27.093Z,63.89
2016-07-12T04:23:27.072Z,63.32
2016-07-12T04:24:27.052Z,63.12
2016-07-12T04:25:27.034Z,63.42
2016-07-12T04:26:27.021Z,63.22
2016-07-12T04:27:27.005Z,63.12
2016-07-12T04:28:26.976Z,63.32
2016-07-12T04:29:26.956Z,63.51
2016-07-12T04:30:26.936Z,63.42
2016-07-12T04:31:26.923Z,63.42
2016-07-12T04:32:26.900Z,63.7
2016-07-12T04:33:26.884Z,63.32
2016-07-12T04:34:26.860Z,63.42
2016-07-12T04:35:26.840Z,63.7
2016-07-12T04:36:26.823Z,63.7
2016-07-12T04:37:26.803Z,63.6
2016-07-12T04:38:26.784Z,63.22
2016-07-12T04:39:26.763Z,63.12
2016-07-12T04:40:26.746Z,62.96
2016-07-12T04:41:26.727Z,63.12
2016-07-12T04:42:26.705Z,63.22
2016-07-12T04:43:26.688Z,63.03
2016-07-12T04:44:26.669Z,63.25
2016-07-12T04:45:26.660Z,63.03
2016-07-12T04:46:26.630Z,63.16
2016-07-12T04:47:26.609Z,63.35
2016-07-12T04:48:26.590Z,62.96
2016-07-12T04:49:26.574Z,63.12
2016-07-12T04:50:26.554Z,63.16
2016-07-12T04:51:26.536Z,62.77
2016-07-12T04:52:26.515Z,62.87
2016-07-12T04:53:26.496Z,63.45
2016-07-12T04:54:26.479Z,62.96
2016-07-12T04:55:26.462Z,62.87
2016-07-12T04:56:26.439Z,62.87
2016-07-12T04:57:26.434Z,62.96
2016-07-12T04:58:26.403Z,63.45
2016-07-12T04:59:26.381Z,63.35
2016-07-12T05:00:26.366Z,63.06
2016-07-12T05:01:26.345Z,63.35
2016-07-12T05:02:26.327Z,63.35
2016-07-12T05:03:26.308Z,62.96
2016-07-12T05:04:26.287Z,63.16
2016-07-12T05:05:26.271Z,63.25
2016-07-12T05:06:26.250Z,62.96
2016-07-12T05:07:26.232Z,63.25
2016-07-12T05:08:26.213Z,63.06
2016-07-12T05:09:26.194Z,63.16
2016-07-12T05:10:26.175Z,62.96
2016-07-12T05:11:26.158Z,63.25
2016-07-12T05:12:26.138Z,63.25
2016-07-12T05:13:26.119Z,63.45
2016-07-12T05:14:26.100Z,62.96
2016-07-12T05:15:26.083Z,62.87
2016-07-12T05:16:26.072Z,62.68
2016-07-12T05:17:26.046Z,62.96
2016-07-12T05:18:26.024Z,62.96
2016-07-12T05:19:26.008Z,62.58
2016-07-12T05:20:25.987Z,62.77
2016-07-12T05:21:25.969Z,62.96
2016-07-12T05:22:25.950Z,63.45
2016-07-12T05:23:25.930Z,63.35
2016-07-12T05:24:25.911Z,63.16
2016-07-12T05:25:25.894Z,63.25
2016-07-12T05:26:25.880Z,63.16
2016-07-12T05:27:25.856Z,63.35
2016-07-12T05:28:25.840Z,62.77
2016-07-12T05:29:25.820Z,62.58
2016-07-12T05:30:25.800Z,62.48
2016-07-12T05:31:25.782Z,62.58
2016-07-12T05:32:25.765Z,62.48
2016-07-12T05:33:25.744Z,62.48
2016-07-12T05:34:25.728Z,62.58
2016-07-12T05:35:25.709Z,62.58
2016-07-12T05:36:25.688Z,62.48
2016-07-12T05:37:25.672Z,62.87
2016-07-12T05:38:25.654Z,62.29
2016-07-12T05:39:25.635Z,62.48
2016-07-12T05:40:25.617Z,62.68
2016-07-12T05:41:25.597Z,62.29
2016-07-12T05:42:25.580Z,62.29
2016-07-12T05:43:25.561Z,61.84
2016-07-12T05:44:25.543Z,61.84
2016-07-12T05:45:25.530Z,61.84
2016-07-12T05:46:25.507Z,61.55
2016-07-12T05:47:25.489Z,61.27
2016-07-12T05:48:25.472Z,61.01
2016-07-12T05:49:25.452Z,61.2
2016-07-12T05:50:25.446Z,60.72
2016-07-12T05:51:25.419Z,60.63
2016-07-12T05:52:25.399Z,60.43
2016-07-12T05:53:25.382Z,60.14
2016-07-12T05:54:25.365Z,60.43
2016-07-12T05:55:25.348Z,59.76
2016-07-12T05:56:25.331Z,60.08
2016-07-12T05:57:25.312Z,59.99
2016-07-12T05:58:25.293Z,59.31
2016-07-12T05:59:25.276Z,58.92
2016-07-12T06:00:25.260Z,58.73
2016-07-12T06:01:25.241Z,58.45
2016-07-12T06:02:25.225Z,58.64
2016-07-12T06:03:25.210Z,57.87
2016-07-12T06:04:25.193Z,57.8
2016-07-12T06:05:25.173Z,57.7
2016-07-12T06:06:25.159Z,57.51
2016-07-12T06:07:25.140Z,57.03
2016-07-12T06:08:25.123Z,56.84
2016-07-12T06:09:25.109Z,56.77
2016-07-12T06:10:25.092Z,56.38
2016-07-12T06:11:25.073Z,56.77
2016-07-12T06:12:25.066Z,56.26
2016-07-12T06:13:25.042Z,56.1
2016-07-12T06:14:25.024Z,56.29
2016-07-12T06:15:25.008Z,56.45
2016-07-12T06:16:24.995Z,56.2
2016-07-12T06:17:24.975Z,56.29
2016-07-12T06:18:24.964Z,56.38
2016-07-12T06:19:24.946Z,56
2016-07-12T06:20:24.935Z,55.62
2016-07-12T06:21:24.915Z,55.62
2016-07-12T06:22:24.896Z,55.52
2016-07-12T06:23:24.897Z,55.9
2016-07-12T06:24:24.868Z,55.81
2016-07-12T06:25:24.852Z,55.9
2016-07-12T06:26:24.839Z,55.43
2016-07-12T06:27:24.821Z,55.81
2016-07-12T06:28:24.806Z,55.23
2016-07-12T06:29:24.796Z,55.04
2016-07-12T06:30:24.779Z,55.13
2016-07-12T06:31:24.761Z,54.75
2016-07-12T06:32:24.748Z,54.85
2016-07-12T06:33:24.735Z,54.94
2016-07-12T06:34:24.718Z,55.23
2016-07-12T06:35:25.416Z,54.94
2016-07-12T06:36:24.693Z,54.46
2016-07-12T06:37:24.676Z,54.36
2016-07-12T06:38:24.659Z,54.3
2016-07-12T06:39:24.645Z,54.2
2016-07-12T06:40:24.633Z,53.81
2016-07-12T06:41:24.619Z,53.53
2016-07-12T06:42:24.602Z,53.62
2016-07-12T06:43:24.591Z,53.14
2016-07-12T06:44:24.578Z,53.14
2016-07-12T06:45:24.564Z,53.33
2016-07-12T06:46:24.548Z,52.66
2016-07-12T06:47:24.538Z,52.4
2016-07-12T06:48:24.526Z,52.78
2016-07-12T06:49:24.509Z,52.2
2016-07-12T06:50:24.497Z,51.82
2016-07-12T06:51:24.484Z,51.62
2016-07-12T06:52:24.473Z,51.82
2016-07-12T06:53:24.458Z,51.34
2016-07-12T06:54:24.445Z,50.88
2016-07-12T06:55:24.432Z,50.98
2016-07-12T06:56:24.420Z,51.17
2016-07-12T06:57:24.519Z,50.78
2016-07-12T06:58:24.397Z,50.78
2016-07-12T06:59:24.385Z,50.3
2016-07-12T07:00:24.370Z,50.3
2016-07-12T07:01:24.359Z,50.23
2016-07-12T07:02:24.345Z,49.46
2016-07-12T07:03:24.334Z,49.46
2016-07-12T07:04:24.319Z,49.07
2016-07-12T07:05:24.309Z,49.07
2016-07-12T07:06:24.301Z,49.17
2016-07-12T07:07:24.284Z,49.19
2016-07-12T07:08:24.275Z,48.9
2016-07-12T07:09:24.262Z,48.81
2016-07-12T07:10:24.249Z,49
2016-07-12T07:11:24.239Z,49.1
2016-07-12T07:12:24.228Z,48.23
2016-07-12T07:13:24.215Z,48.23
2016-07-12T07:14:24.205Z,48.42
2016-07-12T07:15:24.190Z,48.33
2016-07-12T07:16:24.182Z,48.13
2016-07-12T07:17:24.170Z,47.85
2016-07-12T07:18:24.155Z,48.23
2016-07-12T07:19:24.145Z,47.85
2016-07-12T07:20:24.134Z,48.13
2016-07-12T07:21:24.124Z,47.65
2016-07-12T07:22:24.113Z,47.45
2016-07-12T07:23:24.098Z,47.27
2016-07-12T07:24:24.088Z,47.45
2016-07-12T07:25:24.077Z,47.27
2016-07-12T07:26:24.064Z,47.27
2016-07-12T07:27:24.053Z,47.48
2016-07-12T07:28:24.042Z,46.51
2016-07-12T07:29:24.027Z,46.9
2016-07-12T07:30:24.016Z,46.42
2016-07-12T07:31:24.006Z,46.71
2016-07-12T07:32:23.993Z,45.84
2016-07-12T07:33:23.978Z,45.65
2016-07-12T07:34:23.968Z,45.65
2016-07-12T07:35:23.969Z,45.75
2016-07-12T07:36:23.944Z,45.84
2016-07-12T07:37:23.944Z,45.75
2016-07-12T07:38:23.922Z,45.75
2016-07-12T07:39:23.910Z,45.75
2016-07-12T07:40:23.900Z,45.36
2016-07-12T07:41:23.889Z,45.36
2016-07-12T07:42:23.875Z,45.07
2016-07-12T07:43:23.861Z,45.18
2016-07-12T07:44:23.850Z,44.9
2016-07-12T07:45:23.844Z,44.42
2016-07-12T07:46:23.828Z,44.51
2016-07-12T07:47:23.818Z,44.12
2016-07-12T07:48:23.803Z,43.66
2016-07-12T07:49:23.794Z,43.66
2016-07-12T07:50:23.785Z,43.95
2016-07-12T07:51:23.773Z,43.76
2016-07-12T07:52:23.761Z,43.57
2016-07-12T07:53:23.750Z,42.99
2016-07-12T07:54:23.749Z,42.72
2016-07-12T07:55:23.731Z,42.52
2016-07-12T07:56:23.720Z,42.33
2016-07-12T07:57:23.715Z,42.04
2016-07-12T07:58:23.702Z,42.04
2016-07-12T07:59:23.691Z,42.14
2016-07-12T08:00:23.683Z,41.94
2016-07-12T08:01:23.681Z,41.36
2016-07-12T08:02:23.666Z,40.71
2016-07-12T08:03:23.654Z,40.9
2016-07-12T08:04:23.645Z,41
2016-07-12T08:05:23.686Z,40.81
2016-07-12T08:06:23.627Z,40.32
2016-07-12T08:07:23.616Z,40.05
2016-07-12T08:08:23.609Z,39.86
2016-07-12T08:09:23.598Z,39.86
2016-07-12T08:10:23.590Z,40.05
2016-07-12T08:11:23.584Z,39.84
2016-07-12T08:12:23.573Z,39.57
2016-07-12T08:13:23.569Z,39.57
2016-07-12T08:14:23.553Z,39.18
2016-07-12T08:15:23.549Z,38.99
2016-07-12T08:16:23.539Z,39.09
2016-07-12T08:17:23.527Z,38.99
2016-07-12T08:18:24.280Z,39.18
2016-07-12T08:19:23.508Z,38.6
2016-07-12T08:20:23.523Z,38.53
2016-07-12T08:21:24.334Z,38.33
2016-07-12T08:22:23.486Z,38.13
2016-07-12T08:23:23.478Z,37.57
2016-07-12T08:24:23.468Z,37.48
2016-07-12T08:25:23.458Z,36.8
2016-07-12T08:26:23.451Z,36.43
2016-07-12T08:27:23.448Z,36.52
2016-07-12T08:28:23.438Z,35.46
2016-07-12T08:29:23.429Z,34.97
2016-07-12T08:30:23.422Z,35.07
2016-07-12T08:31:23.414Z,35.05
2016-07-12T08:32:23.409Z,35.25
2016-07-12T08:33:23.398Z,35.44
2016-07-12T08:34:23.392Z,35.15
2016-07-12T08:35:23.386Z,35.36
2016-07-12T08:36:23.377Z,35.54
2016-07-12T08:37:23.370Z,36.41
2016-07-12T08:38:23.363Z,36.41
2016-07-12T08:39:23.354Z,36.49
2016-07-12T08:40:23.345Z,37.17
2016-07-12T08:41:23.337Z,37.17
2016-07-12T08:42:23.329Z,36.98
2016-07-12T08:43:23.376Z,37.17
2016-07-12T08:44:23.308Z,37.26
2016-07-12T08:45:23.302Z,36.88
2016-07-12T08:46:23.293Z,36.68
2016-07-12T08:47:23.290Z,36.68
2016-07-12T08:48:23.278Z,36.68
2016-07-12T08:49:23.413Z,36.32
2016-07-12T08:50:23.299Z,36.32
2016-07-12T08:51:23.251Z,36.41
2016-07-12T08:52:23.242Z,35.64
2016-07-12T08:53:23.254Z,35.54
2016-07-12T08:54:23.227Z,35.17
2016-07-12T08:55:23.434Z,35.17
2016-07-12T08:56:23.215Z,35.27
2016-07-12T08:57:23.208Z,34.59
2016-07-12T08:58:23.200Z,33.73
2016-07-12T08:59:23.194Z,34.14
2016-07-12T09:00:23.186Z,33.73
2016-07-12T09:01:23.181Z,33.75
2016-07-12T09:02:23.175Z,33.64
2016-07-12T09:03:23.166Z,33.75
2016-07-12T09:04:23.157Z,33.75
2016-07-12T09:05:23.204Z,33.54
2016-07-12T09:06:23.145Z,33.83
2016-07-12T09:07:23.149Z,33.54
2016-07-12T09:08:23.133Z,33.73
2016-07-12T09:09:23.125Z,33.81
2016-07-12T09:10:23.118Z,34.01
2016-07-12T09:11:23.144Z,33.92
2016-07-12T09:12:23.175Z,33.64
2016-07-12T09:13:23.097Z,33.73
2016-07-12T09:14:23.092Z,33.44
2016-07-12T09:15:23.084Z,33.25
2016-07-12T09:16:23.075Z,33.07
2016-07-12T09:17:23.070Z,32.59
2016-07-12T09:18:23.063Z,32.2
2016-07-12T09:19:23.056Z,32.2
2016-07-12T09:20:23.052Z,31.71
2016-07-12T09:21:23.046Z,31.52
2016-07-12T09:22:23.042Z,31.71
2016-07-12T09:23:23.035Z,31.52
2016-07-12T09:24:23.029Z,31.52
2016-07-12T09:25:23.023Z,31.34
2016-07-12T09:26:23.018Z,31.05
2016-07-12T09:27:23.014Z,31.05
2016-07-12T09:28:23.007Z,30.95
2016-07-12T09:29:23.005Z,30.66
2016-07-12T09:30:23.000Z,30.85
2016-07-12T09:31:22.997Z,31.15
2016-07-12T09:32:22.988Z,30.95
2016-07-12T09:33:22.985Z,30.95
2016-07-12T09:34:22.985Z,30.85
2016-07-12T09:35:22.976Z,30.68
2016-07-12T09:36:22.971Z,30.09
2016-07-12T09:37:22.967Z,30.29
2016-07-12T09:38:22.962Z,29.71
2016-07-12T09:39:22.957Z,30.01
2016-07-12T09:40:22.957Z,29.72
2016-07-12T09:41:22.947Z,29.62
2016-07-12T09:42:22.947Z,29.62
2016-07-12T09:43:22.941Z,29.35
2016-07-12T09:44:22.935Z,29.44
2016-07-12T09:45:22.932Z,28.94
2016-07-12T09:46:22.929Z,28.66
2016-07-12T09:47:22.924Z,28.66
2016-07-12T09:48:22.921Z,28.39
2016-07-12T09:49:22.917Z,28
2016-07-12T09:50:22.927Z,28.19
2016-07-12T09:51:22.911Z,27.8
2016-07-12T09:52:22.907Z,27.8
2016-07-12T09:53:23.596Z,27.8
2016-07-12T09:54:22.900Z,27.51
2016-07-12T09:55:22.898Z,27.32
2016-07-12T09:56:22.893Z,27.12
2016-07-12T09:57:22.891Z,27.03
2016-07-12T09:58:23.581Z,27.32
2016-07-12T09:59:22.885Z,27.12
2016-07-12T10:00:22.887Z,26.93
2016-07-12T10:01:23.776Z,27.14
2016-07-12T10:02:22.875Z,27.03
2016-07-12T10:03:22.873Z,27.04
2016-07-12T10:04:22.867Z,27.12
2016-07-12T10:05:22.864Z,27.03
2016-07-12T10:06:22.864Z,27.03
2016-07-12T10:07:22.855Z,27.42
2016-07-12T10:08:22.851Z,27.79
2016-07-12T10:09:22.848Z,27.79
2016-07-12T10:10:22.845Z,27.69
2016-07-12T10:11:22.840Z,27.79
2016-07-12T10:12:22.835Z,28.18
2016-07-12T10:13:22.832Z,27.5
2016-07-12T10:14:22.824Z,27.22
2016-07-12T10:15:22.824Z,27.03
2016-07-12T10:16:22.816Z,27.14
2016-07-12T10:17:22.814Z,27.23
2016-07-12T10:18:22.809Z,27.32
2016-07-12T10:19:22.803Z,27.5
2016-07-12T10:20:22.798Z,27.4
2016-07-12T10:21:22.793Z,27.79
2016-07-12T10:22:22.791Z,27.21
2016-07-12T10:23:22.784Z,27.11
2016-07-12T10:24:22.778Z,27.01
2016-07-12T10:25:22.773Z,26.34
2016-07-12T10:26:22.768Z,26.15
2016-07-12T10:27:22.763Z,25.48
2016-07-12T10:28:22.758Z,24.98
2016-07-12T10:29:22.758Z,25.27
2016-07-12T10:30:22.747Z,25.27
2016-07-12T10:31:22.754Z,25.08
2016-07-12T10:32:22.741Z,25.08
2016-07-12T10:33:22.732Z,25.47
2016-07-12T10:35:05.413Z,25.47
2016-07-12T10:35:22.725Z,25.36
2016-07-12T10:36:22.719Z,25.36
2016-07-12T10:37:22.713Z,25.46
2016-07-12T10:38:23.398Z,25.07
2016-07-12T10:39:22.696Z,25.26
2016-07-12T10:40:22.691Z,25.47
2016-07-12T10:41:22.684Z,25.57
2016-07-12T10:42:22.684Z,25.26
2016-07-12T10:43:22.674Z,25.16
2016-07-12T10:44:22.670Z,24.78
2016-07-12T10:45:22.662Z,24.79
2016-07-12T10:46:22.654Z,24.3
2016-07-12T10:47:22.647Z,24.4
2016-07-12T10:48:22.643Z,24.51
2016-07-12T10:49:22.637Z,24.41
2016-07-12T10:50:22.630Z,24.71
2016-07-12T10:51:22.629Z,24.41
2016-07-12T10:52:22.622Z,24.12
2016-07-12T10:53:22.619Z,23.45
2016-07-12T10:54:22.615Z,23.36
2016-07-12T10:55:22.611Z,23.36
2016-07-12T10:56:22.609Z,23.28
2016-07-12T10:57:22.605Z,23.08
2016-07-12T10:58:22.602Z,23
2016-07-12T10:59:22.599Z,22.69
2016-07-12T11:00:22.600Z,22.41
2016-07-12T11:01:22.591Z,22.12
2016-07-12T11:02:22.589Z,21.73
2016-07-12T11:03:22.589Z,21.92
2016-07-12T11:04:22.587Z,22.03
2016-07-12T11:05:22.586Z,21.45
2016-07-12T11:06:22.580Z,21.07
2016-07-12T11:07:22.577Z,21.07
2016-07-12T11:08:22.579Z,20.58
2016-07-12T11:09:22.575Z,20.57
2016-07-12T11:10:22.576Z,20.57
2016-07-12T11:11:22.574Z,20.39
2016-07-12T11:12:22.570Z,19.9
2016-07-12T11:13:22.570Z,20.09
2016-07-12T11:14:22.570Z,19.51
2016-07-12T11:15:22.569Z,20
2016-07-12T11:16:22.567Z,19.9
2016-07-12T11:17:22.567Z,20.09
2016-07-12T11:18:22.563Z,20.09
2016-07-12T11:19:22.561Z,19.8
2016-07-12T11:20:22.563Z,19.8
2016-07-12T11:21:22.559Z,19.8
2016-07-12T11:22:22.555Z,19.7
2016-07-12T11:23:22.554Z,19.41
2016-07-12T11:24:22.552Z,19.42
2016-07-12T11:25:22.552Z,19.43
2016-07-12T11:26:22.556Z,18.75
2016-07-12T11:27:22.546Z,18.65
2016-07-12T11:28:22.545Z,18.75
2016-07-12T11:29:22.543Z,18.65
2016-07-12T11:30:22.545Z,18.75
2016-07-12T11:31:22.543Z,18.95
2016-07-12T11:32:22.542Z,19.24
2016-07-12T11:33:22.546Z,19.52
2016-07-12T11:34:22.539Z,19.24
2016-07-12T11:35:22.539Z,19.92
2016-07-12T11:36:22.543Z,20.01
2016-07-12T11:37:22.535Z,19.81
2016-07-12T11:38:22.535Z,19.71
2016-07-12T11:39:22.547Z,20.09
2016-07-12T11:40:22.541Z,19.7
2016-07-12T11:41:22.531Z,19.8
2016-07-12T11:42:22.533Z,19.8
2016-07-12T11:43:22.531Z,20.18
2016-07-12T11:44:22.530Z,20.09
2016-07-12T11:45:22.525Z,20.38
2016-07-12T11:46:22.526Z,20.76
2016-07-12T11:47:22.520Z,20.56
2016-07-12T11:48:22.524Z,20.76
2016-07-12T11:49:23.207Z,21.15
2016-07-12T11:50:22.514Z,21.23
2016-07-12T11:51:22.515Z,21.04
2016-07-12T11:52:22.506Z,21.04
2016-07-12T11:53:22.499Z,21.15
2016-07-12T11:54:22.497Z,21.05
2016-07-12T11:55:22.495Z,21.15
2016-07-12T11:56:22.489Z,21.04
2016-07-12T11:57:22.489Z,21.33
2016-07-12T11:58:22.484Z,21.43
2016-07-12T11:59:22.478Z,21.33
2016-07-12T12:00:22.472Z,21.62
2016-07-12T12:01:22.473Z,21.82
2016-07-12T12:02:22.473Z,21.91
2016-07-12T12:03:22.457Z,22
2016-07-12T12:04:22.450Z,22
2016-07-12T12:05:22.448Z,21.91
2016-07-12T12:06:22.442Z,22
2016-07-12T12:07:22.436Z,21.99
2016-07-12T12:08:22.734Z,22.28
2016-07-12T12:09:22.433Z,22.38
2016-07-12T12:10:22.416Z,22.58
2016-07-12T12:11:22.422Z,22.97
2016-07-12T12:12:22.404Z,23.07
2016-07-12T12:13:22.398Z,23.35
2016-07-12T12:14:22.387Z,23.25
2016-07-12T12:15:22.387Z,23.44
2016-07-12T12:16:22.376Z,23.35
2016-07-12T12:17:22.370Z,23.35
2016-07-12T12:18:22.362Z,23.07
2016-07-12T12:19:22.357Z,23.16
2016-07-12T12:20:22.347Z,22.56
2016-07-12T12:21:22.344Z,22.66
2016-07-12T12:22:22.342Z,22.96
2016-07-12T12:23:22.328Z,23.14
2016-07-12T12:24:22.320Z,23.43
2016-07-12T12:25:22.314Z,23.43
2016-07-12T12:26:22.307Z,23.52
2016-07-12T12:27:22.299Z,23.72
2016-07-12T12:28:22.294Z,24.1
2016-07-12T12:29:22.284Z,24.58
2016-07-12T12:30:22.279Z,24.39
2016-07-12T12:31:22.268Z,24.68
2016-07-12T12:32:22.262Z,24.39
2016-07-12T12:33:22.253Z,24.19
2016-07-12T12:34:22.246Z,24.39
2016-07-12T12:35:22.239Z,24.58
2016-07-12T12:36:22.233Z,24.78
2016-07-12T12:37:22.222Z,24.19
2016-07-12T12:38:22.213Z,24.49
2016-07-12T12:39:22.204Z,24.11
2016-07-12T12:40:22.195Z,24.6
2016-07-12T12:41:22.881Z,24.79
2016-07-12T12:42:22.179Z,24.5
2016-07-12T12:43:22.175Z,25.08
2016-07-12T12:44:22.166Z,25.08
2016-07-12T12:45:22.161Z,24.98
2016-07-12T12:46:22.152Z,25.18
2016-07-12T12:47:22.142Z,25.27
2016-07-12T12:48:22.134Z,24.9
2016-07-12T12:49:22.128Z,24.41
2016-07-12T12:50:22.122Z,24.8
2016-07-12T12:51:22.114Z,24.41
2016-07-12T12:52:22.104Z,24.9
2016-07-12T12:53:22.097Z,25.09
2016-07-12T12:54:22.090Z,25.57
2016-07-12T12:55:22.082Z,25.47
2016-07-12T12:56:22.075Z,25.47